« Back
NWS Peachtree City, Ga » Text Product » ATL Terminal Aerodrome Forecast


Printer-friendly Version
Current Version              Previous Versions:   1  2  3  4  5  6  7  8  9  

Terminal Aerodrome Forecast

398
FTUS42 KFFC 282324
TAFATL
TAF
KATL 282324Z 2900/3006 32012KT P6SM SCT130
     FM290400 35006KT P6SM SKC
     FM291200 08005KT P6SM SKC
     FM291500 12007KT P6SM FEW250
     FM292000 16008KT P6SM SCT050
     FM300400 17006KT P6SM BKN050=

USA.gov is the U.S. government's official web portal to all federal, state and local government web resources and services.